Time;durP1;ratioP1;P1;durP2;ratioP2;P2;SDS_P1;SDS_P2;PMS_P1;PMS_P2;Temp;Humidity;BMP_temperature;BMP_pressure;BME280_temperature;BME280_humidity;BME280_pressure;Samples;Min_cycle;Max_cycle;Signal;HPM_P1;HPM_P2
2022/01/03 00:00:02;;;;;;;5.50;3.80;;;;;9.90;96220.00;;;;8328082;28;20232;-86
2022/01/03 00:04:07;;;;;;;11.85;3.28;;;;;9.90;96227.00;;;;8328937;28;20232;-86
2022/01/03 00:08:11;;;;;;;10.10;3.08;;;;;10.00;96219.00;;;;8331972;28;20225;-85
2022/01/03 00:12:14;;;;;;;7.57;3.42;;;;;10.00;96208.00;;;;8335159;28;20230;-84
2022/01/03 00:16:50;;;;;;;6.75;3.17;;;;;9.90;96202.00;;;;8334597;28;20253;-85
2022/01/03 00:21:00;;;;;;;5.82;3.40;;;;;9.90;96197.00;;;;8334024;28;20267;-85
2022/01/03 00:25:30;;;;;;;6.50;3.20;;;;;9.90;96179.00;;;;8334559;28;20750;-85
2022/01/03 00:29:43;;;;;;;4.82;3.28;;;;;9.90;96192.00;;;;8334392;28;20239;-82
2022/01/03 00:33:50;;;;;;;5.55;3.13;;;;;10.10;96196.00;;;;8334109;28;20229;-83
2022/01/03 00:38:23;;;;;;;4.47;2.90;;;;;10.20;96180.00;;;;8334026;28;20228;-83
2022/01/03 00:42:26;;;;;;;4.63;2.95;;;;;10.30;96190.00;;;;8333992;28;20264;-84
2022/01/03 00:46:31;;;;;;;4.95;2.70;;;;;10.30;96175.00;;;;8333023;28;20240;-84
2022/01/03 00:51:05;;;;;;;4.25;2.95;;;;;10.20;96177.00;;;;8333390;28;20220;-82
2022/01/03 00:55:10;;;;;;;5.72;2.92;;;;;10.30;96165.00;;;;8334558;28;20249;-84
2022/01/03 00:59:45;;;;;;;5.18;3.22;;;;;10.30;96160.00;;;;8332901;28;20527;-84
2022/01/03 01:03:53;;;;;;;3.50;2.67;;;;;10.30;96163.00;;;;8333048;28;20261;-83
2022/01/03 01:07:58;;;;;;;4.78;3.17;;;;;10.40;96158.00;;;;8333218;28;20417;-83
2022/01/03 01:12:03;;;;;;;5.90;3.10;;;;;10.40;96147.00;;;;8332603;28;20615;-83
2022/01/03 01:16:37;;;;;;;6.45;3.17;;;;;10.30;96152.00;;;;8331826;28;20222;-79
2022/01/03 01:20:41;;;;;;;7.43;3.45;;;;;10.30;96146.00;;;;8332274;28;20638;-82
2022/01/03 01:29:42;;;;;;;4.43;2.60;;;;;10.20;96156.00;;;;8299663;28;20217;-82
2022/01/03 01:34:19;;;;;;;3.03;2.75;;;;;10.20;96160.00;;;;8332769;28;20232;-82
2022/01/03 01:38:25;;;;;;;7.15;3.17;;;;;10.20;96159.00;;;;8331312;28;20648;-82
2022/01/03 01:42:31;;;;;;;5.50;3.08;;;;;10.20;96153.00;;;;8332313;28;20221;-81
2022/01/03 01:46:42;;;;;;;4.40;3.10;;;;;10.10;96139.00;;;;8332108;28;20310;-82
2022/01/03 01:50:50;;;;;;;7.93;2.90;;;;;10.10;96127.00;;;;8331624;28;20216;-81
2022/01/03 01:55:21;;;;;;;3.42;2.50;;;;;10.10;96143.00;;;;8332149;28;20221;-81
2022/01/03 02:00:04;;;;;;;3.03;2.53;;;;;10.10;96134.00;;;;8331741;28;20655;-83
2022/01/03 02:04:32;;;;;;;4.68;2.47;;;;;10.10;96118.00;;;;8329739;28;20257;-82
2022/01/03 02:08:44;;;;;;;6.43;2.50;;;;;10.20;96132.00;;;;8331755;28;20312;-85
2022/01/03 02:12:48;;;;;;;4.82;2.20;;;;;10.20;96129.00;;;;8330151;28;20555;-84
2022/01/03 02:17:22;;;;;;;3.92;2.60;;;;;10.20;96133.00;;;;8330196;28;20229;-83
2022/01/03 02:21:27;;;;;;;3.63;2.57;;;;;10.30;96135.00;;;;8330369;28;20250;-81
2022/01/03 02:26:01;;;;;;;3.85;2.42;;;;;10.30;96124.00;;;;8330477;28;20746;-82
2022/01/03 02:30:06;;;;;;;4.13;2.53;;;;;10.40;96129.00;;;;8329151;28;20582;-83
2022/01/03 02:34:42;;;;;;;7.18;2.78;;;;;10.30;96129.00;;;;8329902;28;20220;-82
2022/01/03 02:38:47;;;;;;;6.77;2.23;;;;;10.40;96128.00;;;;8329530;28;20237;-82
2022/01/03 02:43:21;;;;;;;2.92;1.95;;;;;10.40;96127.00;;;;8329494;28;20260;-82
2022/01/03 02:47:24;;;;;;;2.25;2.05;;;;;10.40;96135.00;;;;8330382;28;20224;-82
2022/01/03 02:51:27;;;;;;;4.80;1.98;;;;;10.40;96133.00;;;;8329420;28;20264;-82
2022/01/03 02:56:03;;;;;;;3.92;2.30;;;;;10.40;96127.00;;;;8329009;28;20233;-81
2022/01/03 03:00:09;;;;;;;2.63;1.75;;;;;10.40;96130.00;;;;8329440;28;20319;-80
2022/01/03 03:04:13;;;;;;;4.50;2.05;;;;;10.40;96140.00;;;;8384969;22;20319;-80
2022/01/03 03:08:18;;;;;;;3.80;1.73;;;;;10.50;96118.00;;;;8340029;28;20253;-79
2022/01/03 03:12:23;;;;;;;4.32;1.80;;;;;10.50;96108.00;;;;8336255;28;20662;-80
2022/01/03 03:16:27;;;;;;;7.28;1.52;;;;;10.60;96111.00;;;;8342211;28;20265;-79
2022/01/03 03:20:32;;;;;;;6.38;2.20;;;;;10.80;96110.00;;;;8340895;28;20241;-81
2022/01/03 03:24:35;;;;;;;2.80;1.60;;;;;11.10;96133.00;;;;8338486;28;20330;-81
2022/01/03 03:28:40;;;;;;;3.83;0.70;;;;;11.30;96301.00;;;;8344554;28;20704;-75
2022/01/03 03:32:45;;;;;;;0.70;0.60;;;;;9.70;96264.00;;;;8343728;28;20264;-75
2022/01/03 03:36:48;;;;;;;1.23;0.63;;;;;8.80;96264.00;;;;8348974;28;20256;-75
2022/01/03 03:40:51;;;;;;;0.60;0.60;;;;;8.50;96260.00;;;;8337627;28;20282;-74
2022/01/03 03:44:56;;;;;;;0.95;0.70;;;;;8.20;96297.00;;;;8339555;28;20664;-74
2022/01/03 03:48:59;;;;;;;0.75;0.70;;;;;8.10;96278.00;;;;8345759;28;21068;-74
2022/01/03 03:53:03;;;;;;;0.80;0.73;;;;;8.00;96306.00;;;;8347412;28;20267;-74
2022/01/03 03:57:08;;;;;;;3.20;0.70;;;;;8.00;96293.00;;;;8342802;28;20323;-75
2022/01/03 04:01:12;;;;;;;0.63;0.63;;;;;7.90;96281.00;;;;8336636;28;20311;-75
2022/01/03 04:05:16;;;;;;;0.40;0.40;;;;;7.80;96317.00;;;;8337699;28;20259;-74
2022/01/03 04:09:19;;;;;;;1.03;0.50;;;;;7.80;96304.00;;;;8345147;28;20231;-76
2022/01/03 04:13:22;;;;;;;1.33;0.50;;;;;7.70;96306.00;;;;8344703;28;20315;-75
2022/01/03 04:17:27;;;;;;;1.33;0.60;;;;;7.60;96302.00;;;;8346105;28;20320;-75
2022/01/03 04:21:30;;;;;;;1.30;0.60;;;;;7.60;96311.00;;;;8346385;28;20756;-74
2022/01/03 04:25:33;;;;;;;0.50;0.50;;;;;7.60;96337.00;;;;8347558;28;20291;-75
2022/01/03 04:29:36;;;;;;;1.40;0.50;;;;;7.60;96300.00;;;;8336031;28;20645;-75
2022/01/03 04:33:41;;;;;;;0.40;0.40;;;;;7.60;96295.00;;;;8345635;28;20335;-74
2022/01/03 04:37:44;;;;;;;0.60;0.60;;;;;7.60;96270.00;;;;8338190;28;20675;-74
2022/01/03 04:41:47;;;;;;;0.97;0.50;;;;;7.60;96284.00;;;;8339241;28;20320;-75
2022/01/03 04:45:51;;;;;;;0.50;0.50;;;;;7.60;96287.00;;;;8346032;28;20644;-75
2022/01/03 04:49:55;;;;;;;1.00;0.53;;;;;7.60;96293.00;;;;8339595;28;21269;-75
2022/01/03 04:53:59;;;;;;;0.67;0.67;;;;;7.60;96286.00;;;;8346728;28;20358;-75
2022/01/03 04:58:02;;;;;;;0.87;0.70;;;;;7.60;96297.00;;;;8345942;28;20327;-75
2022/01/03 05:02:05;;;;;;;1.53;0.60;;;;;7.60;96301.00;;;;8350385;28;20244;-75
2022/01/03 05:06:10;;;;;;;0.40;0.40;;;;;7.60;96291.00;;;;8351081;28;20712;-74
2022/01/03 05:10:13;;;;;;;0.40;0.40;;;;;7.60;96278.00;;;;8345783;28;20217;-74
2022/01/03 05:14:17;;;;;;;2.03;0.60;;;;;7.60;96284.00;;;;8348971;28;20232;-74
2022/01/03 05:18:20;;;;;;;0.30;0.30;;;;;7.60;96295.00;;;;8351001;28;20248;-74
2022/01/03 05:22:24;;;;;;;0.50;0.50;;;;;7.60;96275.00;;;;8348594;28;20315;-76
2022/01/03 05:26:28;;;;;;;2.43;0.70;;;;;7.60;96297.00;;;;8349435;28;20315;-75
2022/01/03 05:30:31;;;;;;;0.40;0.40;;;;;7.70;96276.00;;;;8350264;28;20244;-75
2022/01/03 05:34:34;;;;;;;2.17;0.63;;;;;7.60;96274.00;;;;8348485;28;20217;-76
2022/01/03 05:38:39;;;;;;;4.80;0.90;;;;;7.60;96278.00;;;;8344895;28;20248;-76
2022/01/03 05:42:44;;;;;;;0.87;0.60;;;;;7.70;96282.00;;;;8340734;28;20823;-76
2022/01/03 05:46:47;;;;;;;2.83;0.93;;;;;7.70;96293.00;;;;8336715;28;20303;-77
2022/01/03 05:50:51;;;;;;;0.50;0.50;;;;;7.70;96279.00;;;;8348994;28;20266;-76
2022/01/03 05:54:56;;;;;;;0.50;0.50;;;;;7.60;96281.00;;;;8344863;28;20243;-76
2022/01/03 05:58:59;;;;;;;1.03;0.77;;;;;7.50;96279.00;;;;8347283;28;20579;-74
2022/01/03 06:03:02;;;;;;;0.73;0.43;;;;;7.50;96275.00;;;;8347878;28;20282;-75
2022/01/03 06:07:08;;;;;;;3.30;0.70;;;;;7.40;96279.00;;;;8347769;28;20698;-77
2022/01/03 06:11:12;;;;;;;0.30;0.30;;;;;7.40;96269.00;;;;8343493;28;20247;-76
2022/01/03 06:15:16;;;;;;;4.47;0.50;;;;;7.40;96268.00;;;;8336827;28;20252;-76
2022/01/03 06:19:20;;;;;;;0.33;0.33;;;;;7.50;96272.00;;;;8340068;28;20225;-77
2022/01/03 06:23:24;;;;;;;1.47;0.50;;;;;7.50;96270.00;;;;8347391;28;20231;-75
2022/01/03 06:27:28;;;;;;;2.87;0.30;;;;;7.50;96263.00;;;;8346207;28;20256;-75
2022/01/03 06:31:32;;;;;;;0.40;0.40;;;;;7.60;96278.00;;;;8342844;28;21038;-74
2022/01/03 06:35:37;;;;;;;1.07;0.40;;;;;7.60;96268.00;;;;8344770;28;20271;-75
2022/01/03 06:39:40;;;;;;;4.10;0.50;;;;;7.60;96265.00;;;;8346424;28;20672;-75
2022/01/03 06:43:44;;;;;;;0.40;0.40;;;;;7.50;96259.00;;;;8346073;28;20320;-75
2022/01/03 06:47:49;;;;;;;0.43;0.43;;;;;7.40;96253.00;;;;8348087;28;20228;-76
2022/01/03 06:51:53;;;;;;;0.60;0.60;;;;;7.30;96264.00;;;;8345811;28;20811;-76
2022/01/03 06:55:56;;;;;;;1.57;0.67;;;;;7.30;96256.00;;;;8346781;28;20814;-76
2022/01/03 07:00:00;;;;;;;0.50;0.47;;;;;7.30;96247.00;;;;8346637;28;20712;-76
2022/01/03 07:04:04;;;;;;;2.87;0.50;;;;;7.30;96254.00;;;;8347062;28;20239;-75
2022/01/03 07:08:07;;;;;;;0.40;0.40;;;;;7.30;96254.00;;;;8347799;28;20232;-75
2022/01/03 07:12:11;;;;;;;0.63;0.60;;;;;7.30;96263.00;;;;8346298;28;20264;-76
2022/01/03 07:20:37;;;;;;;0.40;0.40;;;;;7.30;96255.00;;;;8346956;28;20255;-74
2022/01/03 07:24:41;;;;;;;5.43;0.83;;;;;7.30;96264.00;;;;8347229;28;20316;-75
2022/01/03 07:28:44;;;;;;;2.70;0.70;;;;;7.40;96266.00;;;;8343982;28;20221;-74
2022/01/03 07:32:48;;;;;;;1.63;0.40;;;;;7.40;96263.00;;;;8343288;28;20229;-75
2022/01/03 07:36:52;;;;;;;0.60;0.60;;;;;7.40;96258.00;;;;8345814;28;20303;-75
2022/01/03 07:40:55;;;;;;;0.50;0.50;;;;;7.50;96256.00;;;;8340952;28;20951;-75
2022/01/03 07:44:58;;;;;;;0.60;0.60;;;;;7.50;96263.00;;;;8344113;28;20753;-74
2022/01/03 07:49:03;;;;;;;0.70;0.70;;;;;7.60;96261.00;;;;8338228;28;20800;-74
2022/01/03 07:53:07;;;;;;;3.83;0.87;;;;;7.70;96254.00;;;;8343240;28;20658;-73
2022/01/03 07:57:11;;;;;;;4.33;0.90;;;;;7.80;96253.00;;;;8334857;28;20303;-74
2022/01/03 08:01:14;;;;;;;0.80;0.80;;;;;7.90;96256.00;;;;8341663;28;20256;-74
2022/01/03 08:05:19;;;;;;;6.13;0.60;;;;;8.10;96250.00;;;;8339519;28;20221;-74
2022/01/03 08:09:22;;;;;;;3.13;0.47;;;;;8.20;96248.00;;;;8341331;28;20248;-75
2022/01/03 08:13:26;;;;;;;1.00;0.90;;;;;8.30;96248.00;;;;8344805;28;20252;-75
2022/01/03 08:17:29;;;;;;;4.80;0.50;;;;;8.40;96254.00;;;;8342731;28;20235;-74
2022/01/03 08:21:33;;;;;;;0.60;0.60;;;;;8.50;96259.00;;;;8344957;28;20256;-74
2022/01/03 08:25:37;;;;;;;1.03;0.70;;;;;8.60;96256.00;;;;8341363;28;20265;-74
2022/01/03 08:29:41;;;;;;;0.67;0.67;;;;;8.60;96256.00;;;;8346531;28;20303;-74
2022/01/03 08:33:44;;;;;;;1.97;0.90;;;;;8.70;96261.00;;;;8348027;28;20232;-74
2022/01/03 08:37:49;;;;;;;2.70;1.00;;;;;8.80;96265.00;;;;8348186;28;20228;-74
2022/01/03 08:41:52;;;;;;;3.27;0.83;;;;;8.80;96263.00;;;;8343341;28;20303;-74
2022/01/03 08:45:55;;;;;;;2.63;0.73;;;;;8.90;96270.00;;;;8345721;28;20750;-73
2022/01/03 08:49:59;;;;;;;1.93;0.93;;;;;9.00;96269.00;;;;8350141;28;20653;-74
2022/01/03 08:54:04;;;;;;;2.87;0.97;;;;;9.10;96267.00;;;;8346586;28;20256;-74
2022/01/03 08:58:07;;;;;;;1.02;0.93;;;;;9.20;96274.00;;;;8349347;28;20259;-71
2022/01/03 09:02:10;;;;;;;4.67;0.93;;;;;9.30;96270.00;;;;8349023;28;20315;-76
2022/01/03 09:06:14;;;;;;;2.83;0.90;;;;;9.30;96269.00;;;;8344291;28;20229;-74
2022/01/03 09:10:18;;;;;;;3.10;0.70;;;;;9.50;96277.00;;;;8340047;28;20235;-73
2022/01/03 09:14:22;;;;;;;1.63;1.10;;;;;9.60;96287.00;;;;8344890;28;20236;-75
2022/01/03 09:18:27;;;;;;;4.07;0.77;;;;;9.70;96285.00;;;;8343337;28;20270;-73
2022/01/03 09:22:35;;;;;;;3.03;1.10;;;;;9.70;96276.00;;;;8347916;28;20301;-74
2022/01/03 09:31:01;;;;;;;10.48;1.63;;;;;9.90;96290.00;;;;8343759;28;20649;-74
2022/01/03 09:35:06;;;;;;;4.75;0.95;;;;;10.00;96278.00;;;;8347334;28;20279;-77
2022/01/03 09:39:10;;;;;;;4.38;0.98;;;;;10.00;96286.00;;;;8346742;28;20251;-74
2022/01/03 09:43:18;;;;;;;2.88;0.95;;;;;10.00;96286.00;;;;8340098;28;20649;-77
2022/01/03 09:47:23;;;;;;;4.50;1.20;;;;;10.10;96288.00;;;;8344398;28;20319;-73
2022/01/03 09:51:28;;;;;;;1.15;1.00;;;;;10.10;96279.00;;;;8349128;28;20246;-73
2022/01/03 09:55:33;;;;;;;0.73;0.73;;;;;10.20;96281.00;;;;8348026;28;20774;-76
2022/01/03 09:59:39;;;;;;;3.88;1.10;;;;;10.30;96278.00;;;;8341785;28;20341;-77
2022/01/03 10:03:47;;;;;;;6.03;1.10;;;;;10.30;96268.00;;;;8341876;28;20831;-75
2022/01/03 10:07:50;;;;;;;3.45;0.77;;;;;10.40;96275.00;;;;8344366;28;20286;-77
2022/01/03 10:11:54;;;;;;;3.95;1.10;;;;;10.40;96260.00;;;;8345445;28;20229;-76
2022/01/03 10:15:58;;;;;;;7.80;1.13;;;;;10.40;96260.00;;;;8347416;28;20261;-76
2022/01/03 10:20:02;;;;;;;3.28;0.95;;;;;10.50;96250.00;;;;8336553;28;20878;-77
2022/01/03 10:24:06;;;;;;;4.22;1.20;;;;;10.60;96256.00;;;;8344286;28;20250;-74
2022/01/03 10:28:10;;;;;;;3.45;1.30;;;;;10.70;96257.00;;;;8344235;28;20303;-79
2022/01/03 10:32:15;;;;;;;2.63;1.33;;;;;10.70;96256.00;;;;8346282;28;20968;-75
2022/01/03 10:36:28;;;;;;;3.75;0.90;;;;;10.70;96249.00;;;;8346592;28;20263;-76
2022/01/03 10:40:32;;;;;;;2.03;1.02;;;;;10.60;96248.00;;;;8346674;28;20319;-75
2022/01/03 10:44:38;;;;;;;8.10;1.50;;;;;10.60;96258.00;;;;8345615;28;20300;-77
2022/01/03 10:48:42;;;;;;;1.45;1.30;;;;;10.60;96268.00;;;;8346408;28;20218;-74
2022/01/03 10:52:47;;;;;;;1.40;1.17;;;;;10.40;96269.00;;;;8345445;28;20244;-78
2022/01/03 10:56:51;;;;;;;5.82;1.30;;;;;10.20;96267.00;;;;8342656;28;20260;-77
2022/01/03 11:00:54;;;;;;;3.92;0.80;;;;;10.20;96255.00;;;;8341499;28;20335;-78
2022/01/03 11:05:03;;;;;;;2.80;1.05;;;;;10.10;96264.00;;;;8345862;28;20263;-78
2022/01/03 11:13:28;;;;;;;5.18;1.27;;;;;10.10;96256.00;;;;8345731;28;20253;-78
2022/01/03 11:17:32;;;;;;;4.85;1.02;;;;;10.10;96250.00;;;;8341190;28;20259;-79
2022/01/03 11:21:44;;;;;;;8.57;1.20;;;;;10.10;96248.00;;;;8333640;28;20220;-77
2022/01/03 11:25:47;;;;;;;4.53;1.52;;;;;10.10;96237.00;;;;8339283;28;20228;-78
2022/01/03 11:29:51;;;;;;;1.98;1.27;;;;;10.20;96229.00;;;;8343200;28;20244;-77
2022/01/03 11:33:54;;;;;;;2.28;0.90;;;;;10.30;96237.00;;;;8343279;28;20793;-78
2022/01/03 11:38:21;;;;;;;1.02;0.98;;;;;10.40;96217.00;;;;8343095;28;20258;-79
2022/01/03 11:42:28;;;;;;;7.05;1.23;;;;;10.40;96227.00;;;;8344802;28;20838;-80
2022/01/03 11:46:32;;;;;;;1.15;0.82;;;;;10.50;96201.00;;;;8342385;28;20717;-79
2022/01/03 11:50:37;;;;;;;3.20;0.80;;;;;10.50;96199.00;;;;8342367;28;20253;-77
2022/01/03 11:54:42;;;;;;;1.88;1.50;;;;;10.60;96202.00;;;;8343997;28;20235;-79
2022/01/03 11:58:53;;;;;;;6.72;1.40;;;;;10.70;96184.00;;;;8347036;28;20304;-77
2022/01/03 12:07:24;;;;;;;5.63;1.80;;;;;10.60;96166.00;;;;8348881;28;20232;-77
2022/01/03 12:11:30;;;;;;;3.72;1.60;;;;;10.60;96156.00;;;;8351127;28;20264;-78
2022/01/03 12:15:35;;;;;;;4.80;1.50;;;;;10.60;96163.00;;;;8351411;28;20273;-76
2022/01/03 12:19:40;;;;;;;6.32;1.20;;;;;10.30;96149.00;;;;8344048;28;20226;-82
2022/01/03 12:23:46;;;;;;;3.15;1.27;;;;;10.10;96151.00;;;;8346729;28;20358;-80
2022/01/03 12:27:58;;;;;;;5.72;1.45;;;;;10.00;96136.00;;;;8340953;28;20829;-79
2022/01/03 12:32:14;;;;;;;6.07;1.60;;;;;10.00;96129.00;;;;8348585;28;20371;-81
2022/01/03 12:36:19;;;;;;;5.63;1.10;;;;;10.00;96124.00;;;;8342144;28;20725;-80
2022/01/03 12:40:25;;;;;;;147.77;71.22;;;;;10.00;96126.00;;;;8337161;28;20228;-81
2022/01/03 12:44:56;;;;;;;17.45;7.60;;;;;10.10;96127.00;;;;8321383;28;20285;-79
2022/01/03 12:49:29;;;;;;;11.27;2.92;;;;;10.10;96112.00;;;;8341946;28;20834;-81
2022/01/03 12:53:44;;;;;;;5.35;2.08;;;;;10.20;96119.00;;;;8344607;28;20255;-76
2022/01/03 12:57:47;;;;;;;5.28;1.83;;;;;10.20;96114.00;;;;8350638;28;20256;-75
2022/01/03 13:01:52;;;;;;;11.65;4.25;;;;;10.30;96121.00;;;;8346202;28;20224;-77
2022/01/03 13:06:12;;;;;;;30.02;18.35;;;;;10.30;96112.00;;;;8348147;28;20229;-74
2022/01/03 13:10:18;;;;;;;23.90;6.90;;;;;10.20;96103.00;;;;8347123;28;20237;-75
2022/01/03 13:14:22;;;;;;;13.07;8.15;;;;;10.20;96099.00;;;;8341041;28;20231;-73
2022/01/03 13:18:27;;;;;;;19.38;10.80;;;;;10.20;96098.00;;;;8348683;28;20331;-75
2022/01/03 13:22:32;;;;;;;35.53;21.45;;;;;10.10;96098.00;;;;8347327;28;20620;-75
2022/01/03 13:26:49;;;;;;;24.02;14.75;;;;;10.10;96091.00;;;;8348250;28;20236;-75
2022/01/03 13:30:59;;;;;;;43.72;23.60;;;;;10.20;96088.00;;;;8345954;28;20668;-78
2022/01/03 13:35:07;;;;;;;19.30;11.27;;;;;10.20;96077.00;;;;8344754;28;20320;-77
2022/01/03 13:39:14;;;;;;;11.43;3.85;;;;;10.20;96074.00;;;;8345741;28;20239;-79
2022/01/03 13:43:20;;;;;;;8.40;1.88;;;;;10.20;96070.00;;;;8348644;28;20256;-79
2022/01/03 13:51:50;;;;;;;12.15;4.35;;;;;10.30;96060.00;;;;8351203;28;20224;-76
2022/01/03 13:55:57;;;;;;;9.63;6.55;;;;;10.40;96058.00;;;;8355654;28;21347;-79
2022/01/03 14:00:01;;;;;;;6.85;3.10;;;;;10.50;96053.00;;;;8351283;28;20233;-75
2022/01/03 14:04:05;;;;;;;10.23;2.92;;;;;10.50;96048.00;;;;8346561;28;20315;-78
2022/01/03 14:08:11;;;;;;;29.92;15.27;;;;;10.60;96046.00;;;;8343746;28;20319;-78
2022/01/03 14:12:17;;;;;;;8.88;4.10;;;;;10.60;96045.00;;;;8349003;28;20224;-78
2022/01/03 14:16:23;;;;;;;9.95;3.75;;;;;10.60;96068.00;;;;8348062;28;20296;-80
2022/01/03 14:20:26;;;;;;;4.90;1.98;;;;;10.60;96071.00;;;;8347609;28;20672;-81
2022/01/03 14:24:31;;;;;;;7.25;2.08;;;;;10.60;96053.00;;;;8345706;28;20703;-78
2022/01/03 14:28:35;;;;;;;7.72;2.95;;;;;10.70;96051.00;;;;8345665;28;20239;-76
2022/01/03 14:32:39;;;;;;;6.50;3.33;;;;;10.80;96054.00;;;;8343675;28;20231;-78
2022/01/03 14:36:42;;;;;;;15.43;4.00;;;;;10.80;96051.00;;;;8347543;28;20275;-77
2022/01/03 14:40:50;;;;;;;6.15;3.28;;;;;10.80;96041.00;;;;8341530;28;20277;-75
2022/01/03 14:44:54;;;;;;;10.38;3.92;;;;;10.70;96041.00;;;;8345397;28;20340;-83
2022/01/03 14:48:57;;;;;;;15.63;3.83;;;;;10.70;96040.00;;;;8343622;28;20744;-81
2022/01/03 14:53:01;;;;;;;14.98;4.07;;;;;10.70;96017.00;;;;8346833;28;20235;-73
2022/01/03 14:57:27;;;;;;;11.48;3.92;;;;;10.50;96016.00;;;;8346299;28;20258;-73
2022/01/03 15:01:30;;;;;;;13.43;5.40;;;;;10.60;96012.00;;;;8348740;28;20354;-78
2022/01/03 15:05:34;;;;;;;8.85;2.35;;;;;10.50;96018.00;;;;8346120;28;20612;-77
2022/01/03 15:09:37;;;;;;;6.45;2.03;;;;;10.30;96014.00;;;;8341662;28;20452;-70
2022/01/03 15:13:57;;;;;;;7.55;2.20;;;;;10.60;95996.00;;;;8339697;28;20229;-75
2022/01/03 15:18:01;;;;;;;6.32;2.30;;;;;10.60;95997.00;;;;8402512;28;20287;-76
2022/01/03 15:22:04;;;;;;;6.28;2.10;;;;;10.60;96000.00;;;;8411705;28;20254;-73
2022/01/03 15:26:11;;;;;;;6.35;2.22;;;;;10.50;95990.00;;;;8412740;28;20223;-76
2022/01/03 15:30:20;;;;;;;9.07;2.53;;;;;10.50;95989.00;;;;8402842;28;20897;-74
2022/01/03 15:34:24;;;;;;;7.43;2.53;;;;;10.50;95982.00;;;;8412416;28;20219;-72
2022/01/03 15:38:31;;;;;;;6.40;2.55;;;;;10.50;95983.00;;;;8412123;28;20215;-73
2022/01/03 15:42:34;;;;;;;5.38;2.53;;;;;10.50;95966.00;;;;8412350;28;20234;-74
2022/01/03 15:46:40;;;;;;;5.60;1.88;;;;;10.50;95966.00;;;;8413731;28;20314;-76
2022/01/03 15:50:44;;;;;;;2.72;1.70;;;;;10.50;95970.00;;;;8412432;28;20595;-76
2022/01/03 15:54:48;;;;;;;5.80;2.15;;;;;10.50;95958.00;;;;8414195;28;20592;-73
2022/01/03 15:58:51;;;;;;;5.50;1.90;;;;;10.50;95956.00;;;;8406538;28;20383;-75
2022/01/03 16:02:56;;;;;;;4.70;1.95;;;;;10.50;95957.00;;;;8412672;28;20310;-70
2022/01/03 16:07:00;;;;;;;6.15;2.20;;;;;10.40;95958.00;;;;8411218;28;20288;-73
2022/01/03 16:11:05;;;;;;;7.40;2.42;;;;;10.40;95949.00;;;;8412051;28;20231;-75
2022/01/03 16:15:28;;;;;;;6.70;2.30;;;;;10.40;95946.00;;;;8397286;28;20234;-76
2022/01/03 16:19:35;;;;;;;5.97;2.63;;;;;10.40;95950.00;;;;8414436;28;21012;-79
2022/01/03 16:23:38;;;;;;;3.45;2.58;;;;;10.40;95935.00;;;;8412709;28;20257;-71
2022/01/03 16:27:42;;;;;;;5.18;2.83;;;;;10.40;95934.00;;;;8410203;28;20254;-72
2022/01/03 16:31:49;;;;;;;9.18;2.53;;;;;10.30;95929.00;;;;8409465;28;20936;-75
2022/01/03 16:35:54;;;;;;;10.23;2.60;;;;;10.30;95924.00;;;;8413415;28;20234;-73
2022/01/03 16:39:57;;;;;;;5.60;2.80;;;;;10.20;95916.00;;;;8382646;28;20318;-76
2022/01/03 16:44:00;;;;;;;6.45;2.88;;;;;10.10;95904.00;;;;8410454;28;20310;-74
2022/01/03 16:48:04;;;;;;;5.10;2.25;;;;;10.00;95896.00;;;;8412300;28;20698;-75
2022/01/03 16:52:09;;;;;;;8.55;2.55;;;;;9.80;95899.00;;;;8415984;28;20569;-74
2022/01/03 16:56:12;;;;;;;8.37;3.20;;;;;9.60;95879.00;;;;8416222;28;20253;-74
2022/01/03 17:00:16;;;;;;;9.30;2.58;;;;;9.50;95868.00;;;;8421954;28;20323;-75
2022/01/03 17:04:19;;;;;;;5.80;2.50;;;;;9.40;95861.00;;;;8415893;28;20266;-75
2022/01/03 17:08:24;;;;;;;8.93;3.57;;;;;9.40;95879.00;;;;8416678;28;20243;-75
2022/01/03 17:12:27;;;;;;;9.43;3.60;;;;;9.30;95870.00;;;;8413300;28;20249;-73
2022/01/03 17:16:30;;;;;;;10.07;2.67;;;;;9.30;95885.00;;;;8414908;28;20311;-76
2022/01/03 17:20:35;;;;;;;2.53;1.90;;;;;9.30;95862.00;;;;8415030;28;20253;-77
2022/01/03 17:24:40;;;;;;;8.27;2.83;;;;;9.40;95853.00;;;;8406969;28;20390;-77
2022/01/03 17:28:43;;;;;;;7.47;2.60;;;;;9.40;95853.00;;;;8416466;28;20679;-76
2022/01/03 17:32:46;;;;;;;5.95;2.00;;;;;9.40;95848.00;;;;8415578;28;20231;-76
2022/01/03 17:36:50;;;;;;;6.78;3.20;;;;;9.50;95862.00;;;;8415536;28;20307;-75
2022/01/03 17:40:54;;;;;;;8.40;3.63;;;;;9.50;95837.00;;;;8423360;28;20254;-76
2022/01/03 17:44:58;;;;;;;7.13;3.20;;;;;9.50;95833.00;;;;8416914;28;20323;-75
2022/01/03 17:49:04;;;;;;;10.05;2.92;;;;;9.30;95828.00;;;;8408637;28;20832;-79
2022/01/03 17:53:10;;;;;;;6.57;3.07;;;;;9.30;95816.00;;;;8412335;28;20223;-74
2022/01/03 17:57:15;;;;;;;7.10;3.37;;;;;9.20;95823.00;;;;8420007;28;20268;-75
2022/01/03 18:01:18;;;;;;;8.70;2.47;;;;;9.10;95815.00;;;;8412345;28;20238;-74
2022/01/03 18:05:23;;;;;;;9.93;2.70;;;;;9.20;95812.00;;;;8415993;28;20284;-76
2022/01/03 18:09:27;;;;;;;7.60;3.00;;;;;9.20;95821.00;;;;8413986;28;20285;-74
2022/01/03 18:13:31;;;;;;;5.00;2.20;;;;;9.30;95824.00;;;;8418253;28;20330;-76
2022/01/03 18:17:35;;;;;;;9.45;2.30;;;;;9.30;95810.00;;;;8415967;28;20331;-75
2022/01/03 18:21:38;;;;;;;4.60;2.75;;;;;9.30;95806.00;;;;8419560;28;20706;-75
2022/01/03 18:25:41;;;;;;;5.82;2.45;;;;;9.40;95810.00;;;;8413215;28;20320;-76
2022/01/03 18:29:46;;;;;;;5.10;2.20;;;;;9.40;95805.00;;;;8416256;28;20331;-78
2022/01/03 18:33:49;;;;;;;6.30;2.40;;;;;9.40;95806.00;;;;8407621;28;20684;-76
2022/01/03 18:37:53;;;;;;;8.77;2.30;;;;;9.40;95797.00;;;;8428151;28;20226;-75
2022/01/03 18:41:56;;;;;;;4.43;2.33;;;;;9.40;95796.00;;;;8409627;28;20257;-75
2022/01/03 18:46:01;;;;;;;7.77;2.60;;;;;9.40;95778.00;;;;8407260;28;20568;-76
2022/01/03 18:50:10;;;;;;;7.60;2.70;;;;;9.50;95781.00;;;;8413888;28;20906;-76
2022/01/03 18:54:16;;;;;;;5.90;2.30;;;;;9.50;95782.00;;;;8414220;28;20211;-76
2022/01/03 18:58:19;;;;;;;8.47;2.63;;;;;9.60;95797.00;;;;8407132;28;20221;-76
2022/01/03 19:02:24;;;;;;;7.00;2.30;;;;;9.70;95798.00;;;;8423898;28;20237;-75
2022/01/03 19:06:28;;;;;;;9.38;1.95;;;;;9.80;95785.00;;;;8409635;28;20224;-77
2022/01/03 19:10:34;;;;;;;5.35;1.95;;;;;10.00;95787.00;;;;8403604;28;20263;-76
2022/01/03 19:14:37;;;;;;;4.83;2.13;;;;;10.00;95781.00;;;;8394994;28;20297;-74
2022/01/03 19:18:42;;;;;;;7.03;2.27;;;;;10.10;95767.00;;;;8411554;28;20246;-74
2022/01/03 19:22:46;;;;;;;3.23;1.60;;;;;10.10;95762.00;;;;8407314;28;20231;-79
2022/01/03 19:26:49;;;;;;;4.85;1.80;;;;;10.20;95751.00;;;;8410324;28;20219;-78
2022/01/03 19:30:53;;;;;;;4.88;1.98;;;;;10.20;95742.00;;;;8413401;28;20231;-78
2022/01/03 19:39:18;;;;;;;5.37;2.13;;;;;10.20;95729.00;;;;8413712;28;20227;-76
2022/01/03 19:43:21;;;;;;;3.42;1.70;;;;;10.10;95737.00;;;;8411259;28;20244;-77
2022/01/03 19:47:25;;;;;;;3.78;2.03;;;;;10.10;95736.00;;;;8408941;28;20220;-74
2022/01/03 19:51:29;;;;;;;2.53;2.00;;;;;10.20;95727.00;;;;8403089;28;20248;-76
2022/01/03 19:55:33;;;;;;;5.43;1.77;;;;;10.20;95727.00;;;;8417768;28;20231;-74
2022/01/03 19:59:36;;;;;;;4.50;1.80;;;;;10.20;95729.00;;;;8419360;28;20307;-74
2022/01/03 20:03:39;;;;;;;9.85;2.65;;;;;10.20;95717.00;;;;8413532;28;20335;-77
2022/01/03 20:07:44;;;;;;;3.40;1.70;;;;;10.20;95709.00;;;;8417316;28;20278;-76
2022/01/03 20:11:48;;;;;;;4.93;2.00;;;;;10.20;95700.00;;;;8413025;28;20239;-78
2022/01/03 20:15:51;;;;;;;5.55;1.83;;;;;10.10;95699.00;;;;8413906;28;20220;-75
2022/01/03 20:19:55;;;;;;;5.97;2.20;;;;;10.10;95702.00;;;;8411200;28;20235;-75
2022/01/03 20:24:00;;;;;;;6.43;2.30;;;;;10.10;95697.00;;;;8412107;28;20254;-76
2022/01/03 20:28:04;;;;;;;7.47;2.42;;;;;10.10;95692.00;;;;8417383;28;20626;-75
2022/01/03 20:32:10;;;;;;;3.53;2.03;;;;;10.00;95695.00;;;;8419777;28;20228;-74
2022/01/03 20:36:13;;;;;;;3.85;2.08;;;;;9.90;95695.00;;;;8420292;28;20222;-76
2022/01/03 20:40:18;;;;;;;9.20;2.25;;;;;9.90;95688.00;;;;8418238;28;20267;-77
2022/01/03 20:44:21;;;;;;;3.63;1.87;;;;;9.90;95684.00;;;;8416474;28;20729;-76
2022/01/03 20:48:26;;;;;;;6.72;2.47;;;;;9.80;95681.00;;;;8416085;28;20840;-73
2022/01/03 20:52:29;;;;;;;4.60;1.95;;;;;9.70;95676.00;;;;8422291;28;20220;-76
2022/01/03 20:56:34;;;;;;;9.07;2.42;;;;;9.70;95667.00;;;;8408137;28;20343;-76
2022/01/03 21:00:37;;;;;;;5.68;2.42;;;;;9.60;95663.00;;;;8415844;28;20254;-72
2022/01/03 21:04:41;;;;;;;2.67;2.00;;;;;9.50;95654.00;;;;8415288;28;20639;-74
2022/01/03 21:08:44;;;;;;;4.90;2.17;;;;;9.40;95648.00;;;;8418444;28;20310;-79